Bois-Des-Filion, Canada
Current Conditions -  °F | °C
As of 11:00 PM on Thursday 18 Dec 2014 (Local Time) from CYUL Reporting Station
Light Snow Light Snow  
Wind Chill: 20°   Ceiling: 2400
Heat Index: 28°   Visibility: 15mi
Dew Point: 25°   Wind: 8mph
Humidity: 86%   Direction: 260°W
Pressure: 29.95"   Gusts: NA
Location:  45.65°N, 73.77°W
Report Text: CYUL 190400Z 26007KT 15SM -SN FEW010 OVC024 M02/M04 A2995 RMK SF1SC8 SF TR SLP143
Loading
Personal Weather Stations






























Interactive Weather Map New forecast layout! Learn more

10-Day Weather Forecast

Advertisements
Track Severe Weather on mobile